Time;durP1;ratioP1;P1;durP2;ratioP2;P2;SDS_P1;SDS_P2;PMS_P1;PMS_P2;Temp;Humidity;BMP_temperature;BMP_pressure;BME280_temperature;BME280_humidity;BME280_pressure;Samples;Min_cycle;Max_cycle;Signal;HPM_P1;HPM_P2
2023/08/16 00:00:53;;;;;;;5.40;5.00;;;;;;;16.14;93.38;101993.91;5015368;28;20025;-87
2023/08/16 00:03:18;;;;;;;6.03;4.95;;;;;;;16.11;93.54;101994.03;5032475;28;20048;-87
2023/08/16 00:05:44;;;;;;;5.70;5.20;;;;;;;16.09;93.90;101994.09;5033372;28;20236;-87
2023/08/16 00:08:10;;;;;;;5.57;5.07;;;;;;;16.06;93.89;101991.63;5015461;28;20029;-87
2023/08/16 00:10:35;;;;;;;5.68;4.47;;;;;;;16.05;93.82;101984.59;5033317;28;20247;-87
2023/08/16 00:13:01;;;;;;;4.90;4.55;;;;;;;16.03;93.94;101988.25;5018523;28;20025;-88
2023/08/16 00:15:26;;;;;;;5.20;4.63;;;;;;;16.02;94.37;101992.66;5036356;28;20417;-87
2023/08/16 00:17:53;;;;;;;5.18;4.68;;;;;;;16.01;94.22;101985.66;5036862;28;20374;-87
2023/08/16 00:20:24;;;;;;;5.47;4.97;;;;;;;16.00;94.12;101999.78;5036138;28;20353;-87
2023/08/16 00:22:49;;;;;;;5.43;4.95;;;;;;;15.99;94.30;102006.03;5019018;28;20033;-87
2023/08/16 00:25:15;;;;;;;5.05;4.65;;;;;;;15.97;94.24;102007.88;5036256;28;20040;-87
2023/08/16 00:27:41;;;;;;;4.95;4.55;;;;;;;15.95;94.23;102009.72;5036069;28;20041;-87
2023/08/16 00:30:07;;;;;;;4.95;4.47;;;;;;;15.94;94.33;102015.94;5036644;28;20060;-87
2023/08/16 00:32:33;;;;;;;6.20;4.38;;;;;;;15.91;94.64;102016.91;5035696;28;20112;-87
2023/08/16 00:34:58;;;;;;;4.93;4.50;;;;;;;15.89;94.35;102013.47;5036464;28;20033;-87
2023/08/16 00:37:23;;;;;;;7.55;4.93;;;;;;;15.87;94.84;102011.84;5018212;28;20120;-87
2023/08/16 00:39:49;;;;;;;5.53;4.38;;;;;;;15.86;94.68;102020.69;5036524;28;20025;-87
2023/08/16 00:42:15;;;;;;;5.50;5.00;;;;;;;15.85;94.79;102024.28;5035872;28;20037;-87
2023/08/16 00:44:40;;;;;;;5.85;5.35;;;;;;;15.82;94.74;102024.41;5035990;28;20097;-87
2023/08/16 00:47:05;;;;;;;8.27;5.75;;;;;;;15.81;94.75;102025.31;5018337;28;20036;-87
2023/08/16 00:49:31;;;;;;;5.53;5.13;;;;;;;15.79;94.91;102021.88;5035822;28;20087;-87
2023/08/16 00:51:57;;;;;;;5.07;4.68;;;;;;;15.76;95.00;102024.69;5018060;28;20052;-87
2023/08/16 00:54:23;;;;;;;7.05;5.18;;;;;;;15.73;95.01;102020.34;5035598;28;20033;-87
2023/08/16 00:56:48;;;;;;;4.68;4.28;;;;;;;15.71;94.87;102020.41;5017821;28;20036;-87
2023/08/16 00:59:14;;;;;;;5.05;4.65;;;;;;;15.70;95.11;102034.53;5017572;28;20063;-87
2023/08/16 01:01:40;;;;;;;4.35;4.05;;;;;;;15.69;94.83;102031.97;5035581;28;20041;-87
2023/08/16 01:04:05;;;;;;;5.63;5.18;;;;;;;15.68;95.10;102030.22;5036213;28;20293;-87
2023/08/16 01:06:31;;;;;;;5.28;4.70;;;;;;;15.67;95.05;102033.81;5017283;28;20053;-88
2023/08/16 01:08:57;;;;;;;5.35;4.72;;;;;;;15.65;94.96;102025.09;5035667;28;20037;-87
2023/08/16 01:12:03;;;;;;;5.95;5.03;;;;;;;15.63;94.85;102024.31;5034944;28;20227;-87
2023/08/16 01:14:50;;;;;;;4.93;4.45;;;;;;;15.60;94.93;102035.00;4937695;29;20072;-87
2023/08/16 01:17:16;;;;;;;5.15;4.72;;;;;;;15.59;94.91;102041.19;5033801;28;20386;-87
2023/08/16 01:19:43;;;;;;;4.70;4.30;;;;;;;15.56;95.13;102034.28;5035343;28;20104;-87
2023/08/16 01:22:25;;;;;;;4.93;4.53;;;;;;;15.55;95.13;102044.00;5017685;28;20057;-87
2023/08/16 01:25:18;;;;;;;5.32;4.88;;;;;;;15.54;95.34;102044.91;5017851;28;20064;-87
2023/08/16 01:27:44;;;;;;;4.70;4.30;;;;;;;15.53;95.39;102044.97;5016949;28;20032;-87
2023/08/16 01:30:11;;;;;;;6.85;4.97;;;;;;;15.53;95.07;102055.53;5035313;28;20107;-87
2023/08/16 01:32:37;;;;;;;5.38;4.57;;;;;;;15.51;95.36;102050.28;5035041;28;20112;-87
2023/08/16 01:35:03;;;;;;;5.60;5.10;;;;;;;15.49;95.14;102053.94;5017402;28;20061;-87
2023/08/16 01:37:28;;;;;;;5.40;5.00;;;;;;;15.47;95.26;102066.34;5016484;28;20044;-87
2023/08/16 01:40:00;;;;;;;5.18;4.78;;;;;;;15.45;95.68;102053.22;5035598;28;20202;-87
2023/08/16 01:42:27;;;;;;;4.90;4.43;;;;;;;15.45;95.60;102060.28;5016196;28;20030;-87
2023/08/16 01:44:54;;;;;;;6.03;5.30;;;;;;;15.43;95.53;102055.06;5034840;28;20045;-87
2023/08/16 01:47:20;;;;;;;5.10;4.70;;;;;;;15.41;95.61;102066.59;5034524;28;20025;-87
2023/08/16 01:49:46;;;;;;;5.82;5.20;;;;;;;15.39;95.68;102052.59;5016921;28;20387;-87
2023/08/16 01:52:11;;;;;;;5.88;5.38;;;;;;;15.36;95.58;102051.81;5017079;28;20035;-87
2023/08/16 01:54:36;;;;;;;6.63;5.97;;;;;;;15.34;95.76;102051.00;5034259;28;20102;-87
2023/08/16 01:57:02;;;;;;;5.90;5.40;;;;;;;15.32;95.77;102049.38;5034611;28;20060;-87
2023/08/16 01:59:27;;;;;;;5.68;5.18;;;;;;;15.31;96.16;102053.78;5033907;28;20087;-87
2023/08/16 02:01:52;;;;;;;6.82;5.57;;;;;;;15.30;96.25;102048.59;5016700;28;20308;-87
2023/08/16 02:04:18;;;;;;;6.22;5.65;;;;;;;15.30;96.40;102054.72;5016548;28;20255;-87
2023/08/16 02:06:44;;;;;;;6.30;5.70;;;;;;;15.28;96.42;102051.28;5016294;28;20076;-87
2023/08/16 02:09:09;;;;;;;6.57;5.80;;;;;;;15.26;96.34;102058.41;5034723;28;20283;-87
2023/08/16 02:11:34;;;;;;;5.40;5.00;;;;;;;15.24;96.45;102059.38;5033872;28;20075;-87
2023/08/16 02:14:00;;;;;;;5.45;4.95;;;;;;;15.22;96.30;102054.16;5034301;28;20037;-87
2023/08/16 02:16:26;;;;;;;5.47;4.97;;;;;;;15.21;96.34;102052.44;5033875;28;20029;-87
2023/08/16 02:18:52;;;;;;;5.68;5.18;;;;;;;15.19;96.40;102056.94;5034681;28;20087;-87
2023/08/16 02:21:17;;;;;;;5.68;5.25;;;;;;;15.18;96.32;102060.47;5016005;28;20170;-87
2023/08/16 02:23:43;;;;;;;5.47;4.97;;;;;;;15.16;96.61;102057.06;5016244;28;20040;-87
2023/08/16 02:26:08;;;;;;;5.18;4.68;;;;;;;15.13;96.63;102055.41;5016309;28;20029;-87
2023/08/16 02:28:33;;;;;;;4.82;4.43;;;;;;;15.12;96.61;102051.03;5033562;28;20048;-87
2023/08/16 02:31:06;;;;;;;5.10;4.60;;;;;;;15.12;96.73;102055.47;5016450;28;20029;-87
2023/08/16 02:33:32;;;;;;;5.68;5.22;;;;;;;15.09;96.44;102053.78;5015130;28;20026;-87
2023/08/16 02:36:04;;;;;;;5.47;4.75;;;;;;;15.08;96.58;102052.09;5022799;28;20328;-88
2023/08/16 02:38:29;;;;;;;4.80;4.40;;;;;;;15.07;96.72;102054.78;5013934;28;20045;-88
2023/08/16 02:40:55;;;;;;;4.32;4.03;;;;;;;15.07;97.01;102060.06;4996421;28;20097;-88
2023/08/16 02:43:20;;;;;;;4.65;4.20;;;;;;;15.05;96.83;102052.19;5013619;28;20033;-89
2023/08/16 02:45:45;;;;;;;4.50;4.10;;;;;;;15.03;96.74;102051.41;5014171;28;20065;-88
2023/08/16 02:48:11;;;;;;;4.50;4.10;;;;;;;15.03;96.85;102053.19;5014362;28;20037;-88
2023/08/16 02:50:37;;;;;;;4.80;4.47;;;;;;;15.01;96.81;102057.66;5013459;28;20113;-86
2023/08/16 02:53:03;;;;;;;6.57;4.25;;;;;;;15.00;96.61;102056.81;4996441;28;20097;-86
2023/08/16 02:55:29;;;;;;;4.70;4.35;;;;;;;15.00;96.76;102061.22;4995427;28;20030;-87
2023/08/16 02:57:55;;;;;;;5.43;4.95;;;;;;;14.97;96.83;102059.56;4995827;28;20075;-87
2023/08/16 03:00:20;;;;;;;6.78;4.88;;;;;;;14.97;96.80;102054.28;4995621;28;20492;-86
2023/08/16 03:02:45;;;;;;;5.88;4.97;;;;;;;14.97;96.95;102064.81;4996321;28;20034;-86
2023/08/16 03:05:11;;;;;;;5.80;5.05;;;;;;;14.95;97.04;102058.75;4996264;28;20068;-87
2023/08/16 03:07:36;;;;;;;5.68;5.18;;;;;;;14.96;97.08;102065.75;5013217;28;20383;-87
2023/08/16 03:10:02;;;;;;;5.88;5.38;;;;;;;14.95;96.91;102066.66;4996016;28;20057;-86
2023/08/16 03:12:27;;;;;;;9.75;5.82;;;;;;;14.94;96.90;102062.34;5013154;28;20030;-87
2023/08/16 03:14:53;;;;;;;5.65;5.22;;;;;;;14.93;96.97;102061.44;5013449;28;20033;-87
2023/08/16 03:17:18;;;;;;;5.22;4.80;;;;;;;14.93;97.14;102063.22;5013535;28;20133;-86
2023/08/16 03:19:44;;;;;;;5.05;4.65;;;;;;;14.92;97.30;102069.44;4996181;28;20192;-87
2023/08/16 03:22:09;;;;;;;5.88;5.35;;;;;;;14.92;97.18;102077.34;5013697;28;20058;-87
2023/08/16 03:24:35;;;;;;;7.20;5.97;;;;;;;14.91;97.19;102073.84;4995343;28;20049;-87
2023/08/16 03:27:00;;;;;;;6.82;6.07;;;;;;;14.89;97.28;102070.41;4995772;28;20339;-87
2023/08/16 03:29:26;;;;;;;7.07;6.38;;;;;;;14.89;97.41;102069.56;4995143;28;20036;-86
2023/08/16 03:31:51;;;;;;;7.00;6.40;;;;;;;14.88;97.52;102078.38;5014310;28;20029;-86
2023/08/16 03:34:17;;;;;;;7.82;5.93;;;;;;;14.87;97.42;102082.81;4995255;28;20332;-87
2023/08/16 03:36:42;;;;;;;7.18;6.55;;;;;;;14.85;97.52;102083.78;5013586;28;20053;-86
2023/08/16 03:39:07;;;;;;;8.07;6.82;;;;;;;14.84;97.31;102087.34;4995799;28;20021;-87
2023/08/16 03:41:33;;;;;;;9.68;6.95;;;;;;;14.80;97.58;102086.59;4995109;28;20034;-86
2023/08/16 03:44:00;;;;;;;7.75;6.57;;;;;;;14.80;97.61;102091.03;5013807;28;20029;-87
2023/08/16 03:46:25;;;;;;;7.13;6.60;;;;;;;14.77;97.91;102090.22;4997603;28;20030;-86
2023/08/16 03:48:50;;;;;;;8.75;7.47;;;;;;;14.76;97.71;102085.00;5000045;28;20224;-86
2023/08/16 03:51:16;;;;;;;9.25;7.45;;;;;;;14.75;98.20;102084.16;4999976;28;20267;-86
2023/08/16 03:53:41;;;;;;;7.18;6.50;;;;;;;14.74;98.09;102079.78;4999930;28;20021;-87
2023/08/16 03:56:07;;;;;;;7.70;7.00;;;;;;;14.72;98.24;102084.25;4999591;28;20061;-87
2023/08/16 03:58:32;;;;;;;7.35;6.60;;;;;;;14.72;98.47;102084.25;5016735;28;20595;-87
2023/08/16 04:00:57;;;;;;;7.93;6.85;;;;;;;14.70;98.34;102083.47;5017261;28;20042;-86
2023/08/16 04:03:23;;;;;;;9.20;7.00;;;;;;;14.71;98.32;102079.03;5016588;28;20133;-87
2023/08/16 04:05:48;;;;;;;7.57;6.97;;;;;;;14.70;98.24;102079.97;5017176;28;20042;-87
2023/08/16 04:08:14;;;;;;;7.22;6.53;;;;;;;14.68;98.29;102072.13;4998842;28;20052;-87
2023/08/16 04:10:39;;;;;;;6.85;6.25;;;;;;;14.67;98.21;102075.66;5016593;28;20037;-87
2023/08/16 04:13:04;;;;;;;7.57;6.88;;;;;;;14.66;98.47;102078.34;4998982;28;20124;-87
2023/08/16 04:15:30;;;;;;;7.40;6.70;;;;;;;14.66;98.64;102075.72;5016239;28;20366;-87
2023/08/16 04:17:55;;;;;;;9.00;7.30;;;;;;;14.66;98.21;102084.50;4999302;28;20034;-87
2023/08/16 04:20:22;;;;;;;7.65;6.95;;;;;;;14.66;98.14;102086.25;4998914;28;20259;-87
2023/08/16 04:22:47;;;;;;;7.97;7.18;;;;;;;14.66;98.50;102089.78;4999102;28;20231;-87
2023/08/16 04:25:13;;;;;;;7.80;7.00;;;;;;;14.64;98.55;102080.19;5016813;28;20217;-87
2023/08/16 04:27:38;;;;;;;9.85;7.63;;;;;;;14.63;98.47;102084.63;4998269;28;20062;-87
2023/08/16 04:30:06;;;;;;;8.02;7.22;;;;;;;14.63;98.80;102083.75;5016276;28;20029;-87
2023/08/16 04:32:31;;;;;;;7.93;7.15;;;;;;;14.62;98.65;102085.50;4998453;28;20036;-87
2023/08/16 04:34:58;;;;;;;8.43;7.30;;;;;;;14.61;98.69;102083.81;4998940;28;20030;-87
2023/08/16 04:37:23;;;;;;;7.93;7.03;;;;;;;14.61;98.69;102086.44;4998264;28;20100;-87
2023/08/16 04:39:49;;;;;;;7.47;6.82;;;;;;;14.61;98.91;102082.94;4998802;28;20056;-87
2023/08/16 04:42:14;;;;;;;10.27;7.00;;;;;;;14.59;98.50;102075.97;5016621;28;20156;-87
2023/08/16 04:44:41;;;;;;;7.45;6.75;;;;;;;14.58;98.47;102076.00;4997924;28;20225;-87
2023/08/16 04:47:07;;;;;;;7.50;6.80;;;;;;;14.58;98.58;102070.75;5016565;28;20101;-87
2023/08/16 04:49:32;;;;;;;7.85;7.15;;;;;;;14.58;98.77;102082.13;4997868;28;20037;-86
2023/08/16 04:51:58;;;;;;;9.85;7.25;;;;;;;14.58;98.66;102081.28;4998422;28;20367;-86
2023/08/16 04:54:23;;;;;;;7.25;6.45;;;;;;;14.57;98.67;102075.16;5015771;28;20038;-86
2023/08/16 04:56:49;;;;;;;7.10;6.50;;;;;;;14.58;98.65;102081.28;5015466;28;20143;-86
2023/08/16 04:59:16;;;;;;;7.47;6.78;;;;;;;14.57;98.81;102076.88;4997806;28;20229;-86
2023/08/16 05:01:41;;;;;;;7.90;7.15;;;;;;;14.58;98.79;102086.56;4998597;28;20030;-86
2023/08/16 05:04:08;;;;;;;7.43;6.78;;;;;;;14.58;98.61;102086.56;4998173;28;20038;-87
2023/08/16 05:06:34;;;;;;;8.88;7.85;;;;;;;14.57;98.80;102088.34;5015218;28;20037;-87
2023/08/16 05:09:00;;;;;;;9.88;8.00;;;;;;;14.57;98.93;102082.16;4998283;28;20025;-87
2023/08/16 05:11:26;;;;;;;11.00;7.80;;;;;;;14.58;99.04;102083.91;4997343;28;20383;-86
2023/08/16 05:13:51;;;;;;;8.55;7.65;;;;;;;14.58;99.32;102089.19;5016002;28;20033;-86
2023/08/16 05:16:17;;;;;;;8.90;7.53;;;;;;;14.57;99.28;102090.06;4997670;28;20260;-87
2023/08/16 05:18:42;;;;;;;8.02;7.03;;;;;;;14.58;99.38;102097.09;5015773;28;20042;-87
2023/08/16 05:21:07;;;;;;;9.63;7.95;;;;;;;14.58;99.53;102091.81;4998080;28;20296;-87
2023/08/16 05:23:36;;;;;;;7.93;7.18;;;;;;;14.58;99.32;102094.47;4997298;28;20225;-87
2023/08/16 05:26:01;;;;;;;10.27;7.88;;;;;;;14.59;99.37;102099.69;5015358;28;20034;-87
2023/08/16 05:28:27;;;;;;;8.98;6.90;;;;;;;14.60;99.43;102108.44;5015205;28;20065;-86
2023/08/16 05:30:53;;;;;;;8.18;7.38;;;;;;;14.61;99.58;102096.13;5015541;28;20077;-87
2023/08/16 05:33:18;;;;;;;10.18;8.18;;;;;;;14.62;99.83;102098.69;5015204;28;20236;-87
2023/08/16 05:35:44;;;;;;;14.40;8.13;;;;;;;14.63;99.60;102100.44;5015553;28;20044;-87
2023/08/16 05:38:09;;;;;;;8.00;7.15;;;;;;;14.64;99.96;102110.03;4997660;28;20053;-87
2023/08/16 05:40:34;;;;;;;8.00;6.93;;;;;;;14.67;99.88;102109.09;4997228;28;20308;-86
2023/08/16 05:43:00;;;;;;;7.30;6.70;;;;;;;14.67;99.58;102112.56;5015249;28;20061;-86
2023/08/16 05:45:27;;;;;;;9.27;7.88;;;;;;;14.70;99.90;102111.63;5014452;28;20037;-86
2023/08/16 05:47:53;;;;;;;6.47;5.88;;;;;;;14.72;99.94;102120.31;5015209;28;20037;-87
2023/08/16 05:50:18;;;;;;;8.50;7.70;;;;;;;14.73;100.00;102104.41;4996751;28;20056;-87
2023/08/16 05:52:44;;;;;;;8.65;7.72;;;;;;;14.75;100.00;102110.53;4997222;28;20065;-86
2023/08/16 05:55:09;;;;;;;9.05;7.50;;;;;;;14.76;100.00;102111.38;4997337;28;20340;-86
2023/08/16 05:57:34;;;;;;;8.73;6.03;;;;;;;14.80;100.00;102115.59;4996414;28;20108;-87
2023/08/16 06:00:00;;;;;;;6.05;5.45;;;;;;;14.83;100.00;102118.13;4996862;28;20029;-87
2023/08/16 06:02:26;;;;;;;8.98;7.50;;;;;;;14.85;100.00;102120.72;4996324;28;20056;-87
2023/08/16 06:04:52;;;;;;;9.65;7.43;;;;;;;14.87;100.00;102126.78;4997342;28;20105;-86
2023/08/16 06:07:17;;;;;;;7.45;6.72;;;;;;;14.88;100.00;102123.22;4996547;28;20053;-86
2023/08/16 06:09:43;;;;;;;7.45;6.57;;;;;;;14.89;100.00;102122.31;4996147;28;20248;-86
2023/08/16 06:12:08;;;;;;;5.30;4.90;;;;;;;14.91;100.00;102131.03;4996559;28;20097;-86
2023/08/16 06:14:34;;;;;;;6.40;5.90;;;;;;;14.93;100.00;102124.75;5013837;28;20037;-87
2023/08/16 06:16:59;;;;;;;7.25;6.55;;;;;;;14.95;100.00;102130.84;4997136;28;20052;-87
2023/08/16 06:19:25;;;;;;;7.43;4.55;;;;;;;14.99;100.00;102131.59;4996259;28;20061;-87
2023/08/16 06:21:51;;;;;;;7.25;6.55;;;;;;;15.00;100.00;102128.03;4997339;28;20556;-87
2023/08/16 06:24:16;;;;;;;8.82;7.80;;;;;;;15.03;100.00;102130.56;4996088;28;20025;-87
2023/08/16 06:26:42;;;;;;;8.27;7.05;;;;;;;15.05;100.00;102131.34;5014671;28;20061;-87
2023/08/16 06:29:07;;;;;;;10.75;7.57;;;;;;;15.08;100.00;102136.50;5014105;28;20033;-87
2023/08/16 06:31:33;;;;;;;7.32;6.63;;;;;;;15.10;100.00;102136.47;4996097;28;20542;-87
2023/08/16 06:34:00;;;;;;;9.18;8.35;;;;;;;15.13;100.00;102131.91;5014250;28;20033;-87
2023/08/16 06:36:26;;;;;;;9.65;8.65;;;;;;;15.15;100.00;102135.34;4996241;28;20075;-86
2023/08/16 06:38:53;;;;;;;7.22;6.57;;;;;;;15.19;100.00;102138.75;5014524;28;20046;-86
2023/08/16 06:41:19;;;;;;;11.23;7.93;;;;;;;15.21;100.00;102139.53;4995845;28;20034;-86
2023/08/16 06:43:44;;;;;;;13.25;9.32;;;;;;;15.25;100.00;102135.00;5014384;28;20065;-87
2023/08/16 06:46:10;;;;;;;8.32;7.55;;;;;;;15.30;100.00;102136.53;4996240;28;20192;-86
2023/08/16 06:48:35;;;;;;;9.75;8.32;;;;;;;15.35;100.00;102134.56;5014245;28;20478;-86
2023/08/16 06:51:01;;;;;;;7.90;7.13;;;;;;;15.41;100.00;102141.38;4996763;28;20049;-86
2023/08/16 06:53:27;;;;;;;9.27;7.72;;;;;;;15.46;100.00;102135.88;4995673;28;20072;-86
2023/08/16 06:55:56;;;;;;;7.25;6.57;;;;;;;15.52;100.00;102140.94;4996147;28;20061;-87
2023/08/16 06:58:21;;;;;;;13.60;9.32;;;;;;;15.56;100.00;102139.88;4995428;28;20487;-87
2023/08/16 07:00:48;;;;;;;8.32;7.10;;;;;;;15.63;100.00;102149.28;4996307;28;20036;-86
2023/08/16 07:03:14;;;;;;;10.13;7.05;;;;;;;15.68;100.00;102142.03;4995726;28;20034;-87
2023/08/16 07:05:39;;;;;;;7.78;6.22;;;;;;;15.75;100.00;102142.66;5013828;28;20328;-87
2023/08/16 07:08:06;;;;;;;14.40;9.10;;;;;;;15.80;100.00;102150.38;4996016;28;20080;-87
2023/08/16 07:10:31;;;;;;;7.53;6.35;;;;;;;15.85;100.00;102141.34;4995684;28;20041;-86
2023/08/16 07:12:57;;;;;;;7.13;6.43;;;;;;;15.91;100.00;102140.22;5013653;28;20026;-87
2023/08/16 07:15:22;;;;;;;7.97;6.75;;;;;;;15.98;100.00;102144.31;4995644;28;20033;-87
2023/08/16 07:17:48;;;;;;;6.22;5.65;;;;;;;16.05;100.00;102139.66;4996400;28;20097;-87
2023/08/16 07:20:13;;;;;;;9.48;6.85;;;;;;;16.12;100.00;102143.75;5015597;28;20037;-87
2023/08/16 07:22:39;;;;;;;7.85;5.85;;;;;;;16.21;100.00;102142.47;5017483;28;20274;-87
2023/08/16 07:25:06;;;;;;;4.78;4.38;;;;;;;16.26;100.00;102149.28;5017866;28;20033;-87
2023/08/16 07:27:33;;;;;;;6.78;5.47;;;;;;;16.33;100.00;102151.66;4999388;28;20356;-87
2023/08/16 07:29:58;;;;;;;8.02;5.28;;;;;;;16.40;100.00;102155.75;5017393;28;20030;-87
2023/08/16 07:32:24;;;;;;;5.15;4.68;;;;;;;16.45;100.00;102148.47;5017080;28;20079;-87
2023/08/16 07:34:50;;;;;;;5.07;4.30;;;;;;;16.48;100.00;102149.19;4999941;28;20037;-87
2023/08/16 07:37:15;;;;;;;4.00;3.70;;;;;;;16.53;100.00;102143.69;4999507;28;20071;-87
2023/08/16 07:39:41;;;;;;;10.68;5.32;;;;;;;16.57;100.00;102155.88;5017646;28;20033;-86
2023/08/16 07:42:07;;;;;;;4.78;4.38;;;;;;;16.64;100.00;102146.69;4999881;28;20105;-87
2023/08/16 07:44:36;;;;;;;7.47;4.03;;;;;;;16.72;100.00;102150.78;4999307;28;20076;-87
2023/08/16 07:47:02;;;;;;;4.30;3.90;;;;;;;16.78;100.00;102150.50;5017689;28;20026;-87
2023/08/16 07:49:28;;;;;;;4.15;3.38;;;;;;;16.83;100.00;102167.06;5017080;28;20029;-87
2023/08/16 07:51:57;;;;;;;6.53;3.70;;;;;;;16.86;100.00;102166.91;4999465;28;20038;-87
2023/08/16 07:54:25;;;;;;;6.10;4.30;;;;;;;16.90;100.00;102157.94;4999190;28;20038;-87
2023/08/16 07:56:52;;;;;;;4.47;3.90;;;;;;;16.93;100.00;102157.75;4999677;28;20104;-87
2023/08/16 07:59:17;;;;;;;3.25;3.03;;;;;;;16.98;100.00;102165.50;5016721;28;20041;-87
2023/08/16 08:01:43;;;;;;;6.28;3.95;;;;;;;17.02;100.00;102167.91;5017394;28;20037;-87
2023/08/16 08:04:09;;;;;;;5.10;3.45;;;;;;;17.07;99.88;102173.00;4999163;28;20032;-87
2023/08/16 08:06:35;;;;;;;3.80;3.47;;;;;;;17.12;99.57;102172.78;5016334;28;20100;-87
2023/08/16 08:09:00;;;;;;;4.20;3.80;;;;;;;17.15;98.15;102175.28;4999112;28;20030;-87
2023/08/16 08:11:26;;;;;;;4.35;3.10;;;;;;;17.19;97.56;102171.56;4998342;28;20365;-87
2023/08/16 08:13:51;;;;;;;3.20;3.00;;;;;;;17.22;96.38;102171.41;5017047;28;20037;-87
2023/08/16 08:16:17;;;;;;;2.70;2.47;;;;;;;17.25;96.02;102166.84;4998871;28;20252;-87
2023/08/16 08:18:42;;;;;;;4.25;3.03;;;;;;;17.29;95.40;102164.91;5017254;28;20037;-87
2023/08/16 08:21:08;;;;;;;4.93;2.60;;;;;;;17.34;95.31;102177.94;4999157;28;20030;-87
2023/08/16 08:23:33;;;;;;;2.10;2.00;;;;;;;17.37;94.45;102176.00;5016048;28;20034;-87
2023/08/16 08:25:59;;;;;;;2.72;2.20;;;;;;;17.38;94.10;102177.69;5016932;28;20033;-87
2023/08/16 08:28:25;;;;;;;3.53;1.92;;;;;;;17.41;93.00;102174.91;4998414;28;20475;-87
2023/08/16 08:30:50;;;;;;;3.90;2.03;;;;;;;17.44;91.80;102179.19;5016559;28;20117;-87
2023/08/16 08:33:16;;;;;;;3.13;1.80;;;;;;;17.45;90.99;102181.75;4998663;28;20029;-87
2023/08/16 08:35:41;;;;;;;2.75;1.70;;;;;;;17.48;90.75;102186.03;4998802;28;20041;-87
2023/08/16 08:38:07;;;;;;;2.45;2.25;;;;;;;17.53;90.55;102184.03;5016852;28;20056;-87
2023/08/16 08:40:32;;;;;;;5.10;2.30;;;;;;;17.61;90.27;102189.84;4998110;28;20721;-87
2023/08/16 08:42:59;;;;;;;2.20;2.03;;;;;;;17.62;91.05;102191.53;4998676;28;20324;-87
2023/08/16 08:45:26;;;;;;;2.50;1.88;;;;;;;17.69;90.69;102193.91;4998033;28;20037;-87
2023/08/16 08:47:53;;;;;;;2.10;1.70;;;;;;;17.72;90.11;102194.59;5016153;28;20037;-87
2023/08/16 08:50:19;;;;;;;5.65;2.15;;;;;;;17.77;89.30;102191.72;4997907;28;20033;-87
2023/08/16 08:52:50;;;;;;;2.55;2.10;;;;;;;17.79;88.44;102192.50;4998790;28;20032;-87
2023/08/16 08:55:15;;;;;;;2.97;1.65;;;;;;;17.83;88.06;102196.72;4998544;28;20128;-87
2023/08/16 08:57:43;;;;;;;7.15;1.35;;;;;;;17.88;87.35;102200.00;4997489;28;20214;-87
2023/08/16 09:00:14;;;;;;;1.77;1.63;;;;;;;17.92;87.06;102200.72;4997793;28;20080;-87
2023/08/16 09:02:40;;;;;;;2.08;1.98;;;;;;;17.96;87.01;102203.16;5015702;28;20241;-87
2023/08/16 09:05:09;;;;;;;2.78;1.45;;;;;;;17.99;87.28;102205.66;5016018;28;20515;-87
2023/08/16 09:07:36;;;;;;;2.70;2.13;;;;;;;18.03;87.29;102207.22;4997486;28;20064;-87
2023/08/16 09:10:01;;;;;;;2.42;1.55;;;;;;;18.08;87.60;102206.09;4998341;28;20033;-87
2023/08/16 09:12:27;;;;;;;3.78;1.67;;;;;;;18.11;87.62;102200.66;5013678;28;20025;-87
2023/08/16 09:14:53;;;;;;;4.57;2.00;;;;;;;18.15;88.02;102203.06;4997940;28;20060;-87
2023/08/16 09:17:18;;;;;;;1.70;1.60;;;;;;;18.19;87.69;102203.75;4997327;28;20026;-87
2023/08/16 09:19:45;;;;;;;2.67;1.50;;;;;;;18.20;87.91;102211.66;4998084;28;20415;-87
2023/08/16 09:22:14;;;;;;;3.15;1.65;;;;;;;18.22;87.50;102193.00;4998046;28;20022;-87
2023/08/16 09:24:42;;;;;;;1.80;1.63;;;;;;;18.24;87.11;102201.75;4997825;28;20391;-87
2023/08/16 09:27:08;;;;;;;3.53;1.70;;;;;;;18.23;87.23;102202.69;4997688;28;20364;-87
2023/08/16 09:29:37;;;;;;;4.88;2.00;;;;;;;18.25;86.97;102198.16;4997050;28;20029;-87
2023/08/16 09:32:05;;;;;;;3.45;1.40;;;;;;;18.29;86.72;102191.75;4997447;28;20340;-88
2023/08/16 09:34:31;;;;;;;2.25;1.50;;;;;;;18.33;86.46;102195.09;4997074;28;20125;-87
2023/08/16 09:36:56;;;;;;;4.03;1.58;;;;;;;18.36;86.14;102193.16;5015470;28;20248;-87
2023/08/16 09:39:25;;;;;;;3.67;1.60;;;;;;;18.42;85.63;102191.97;5015192;28;20041;-87
2023/08/16 09:41:51;;;;;;;3.90;1.27;;;;;;;18.50;85.01;102189.78;4997324;28;20030;-87
2023/08/16 09:44:17;;;;;;;2.75;1.23;;;;;;;18.56;84.78;102191.25;4996819;28;20026;-87
2023/08/16 09:46:42;;;;;;;1.58;1.33;;;;;;;18.63;83.67;102191.78;4997375;28;20061;-87
2023/08/16 09:49:09;;;;;;;4.22;1.10;;;;;;;18.67;83.26;102193.34;4997149;28;20030;-87
2023/08/16 09:51:37;;;;;;;1.40;1.30;;;;;;;18.69;82.34;102181.69;4997126;28;20231;-87
2023/08/16 09:54:09;;;;;;;1.67;1.38;;;;;;;18.71;81.34;102181.63;4997302;28;20030;-87
2023/08/16 09:56:34;;;;;;;2.15;1.13;;;;;;;18.74;81.24;102179.66;5014455;28;20037;-88
2023/08/16 09:59:00;;;;;;;1.48;1.38;;;;;;;18.76;81.54;102177.78;4997118;28;20025;-87
2023/08/16 10:01:26;;;;;;;2.40;1.27;;;;;;;18.80;81.34;102179.31;4996683;28;20076;-87
2023/08/16 10:03:53;;;;;;;3.72;1.25;;;;;;;18.86;80.78;102187.91;5014859;28;20084;-87
2023/08/16 10:06:23;;;;;;;3.72;1.20;;;;;;;18.89;78.99;102187.75;4996933;28;20040;-87
2023/08/16 10:08:52;;;;;;;2.55;1.00;;;;;;;18.93;77.75;102184.00;4996602;28;20358;-88
2023/08/16 10:11:17;;;;;;;;;;;;;;;18.96;78.41;102176.72;4996570;28;20034;-87
2023/08/16 10:13:44;;;;;;;2.97;1.48;;;;;;;19.00;78.22;102180.06;4996751;28;20190;-88
2023/08/16 10:16:13;;;;;;;1.85;1.33;;;;;;;19.02;77.78;102179.97;4996817;28;20061;-88
2023/08/16 10:18:42;;;;;;;1.77;1.25;;;;;;;19.04;77.78;102183.41;4996434;28;20044;-87
2023/08/16 10:21:10;;;;;;;1.95;1.40;;;;;;;19.07;77.82;102180.59;4996573;28;20063;-87
2023/08/16 10:23:38;;;;;;;2.50;1.33;;;;;;;19.10;77.82;102177.75;4996056;28;20038;-87
2023/08/16 10:26:10;;;;;;;1.67;1.30;;;;;;;19.12;76.80;102179.41;4996999;28;20021;-87
2023/08/16 10:28:37;;;;;;;1.38;1.27;;;;;;;19.12;77.37;102181.19;4996096;28;20041;-87
2023/08/16 10:31:04;;;;;;;2.35;1.33;;;;;;;19.12;77.51;102182.03;4996397;28;20029;-87
2023/08/16 10:33:33;;;;;;;2.13;1.40;;;;;;;19.15;77.08;102175.69;4996160;28;20033;-87
2023/08/16 10:36:00;;;;;;;1.83;1.58;;;;;;;19.19;76.38;102185.19;4996678;28;20209;-87
2023/08/16 10:38:41;;;;;;;2.15;1.63;;;;;;;19.24;76.16;102187.59;4995766;28;20026;-87
2023/08/16 10:41:14;;;;;;;3.72;1.42;;;;;;;19.30;75.88;102185.47;4996388;28;20030;-87
2023/08/16 10:43:54;;;;;;;3.50;1.42;;;;;;;19.36;76.18;102182.47;4995989;28;20025;-87
2023/08/16 10:46:35;;;;;;;1.77;1.35;;;;;;;19.43;76.12;102185.63;5013661;28;20040;-87
2023/08/16 10:49:02;;;;;;;1.27;1.17;;;;;;;19.46;76.21;102179.28;4996412;28;20060;-87
2023/08/16 10:51:28;;;;;;;1.23;1.13;;;;;;;19.48;76.37;102193.34;4995785;28;20029;-87
2023/08/16 10:53:57;;;;;;;2.28;1.55;;;;;;;19.48;76.02;102178.28;4996171;28;20057;-88
2023/08/16 10:56:23;;;;;;;1.88;1.27;;;;;;;19.52;75.52;102179.78;5013472;28;20056;-87
2023/08/16 10:58:50;;;;;;;1.73;1.35;;;;;;;19.59;75.66;102187.41;4995952;28;20029;-88
2023/08/16 11:01:17;;;;;;;4.00;1.30;;;;;;;19.65;75.66;102179.94;4995906;28;20033;-87
2023/08/16 11:03:43;;;;;;;2.22;1.23;;;;;;;19.69;74.82;102180.63;4995792;28;20034;-87
2023/08/16 11:06:13;;;;;;;2.17;1.20;;;;;;;19.71;74.73;102179.56;4996195;28;20033;-87
2023/08/16 11:08:43;;;;;;;1.88;1.20;;;;;;;19.72;73.97;102176.00;4995674;28;20057;-88
2023/08/16 11:11:11;;;;;;;1.58;0.85;;;;;;;19.75;74.39;102172.31;4996205;28;20225;-87
2023/08/16 11:13:39;;;;;;;2.58;1.20;;;;;;;19.77;74.32;102177.53;4995691;28;20481;-87
2023/08/16 11:16:09;;;;;;;;;;;;;;;19.81;72.82;102174.63;4996121;28;20101;-88
2023/08/16 11:18:35;;;;;;;1.90;0.90;;;;;;;19.88;72.42;102177.75;5013143;28;20144;-88
2023/08/16 11:21:01;;;;;;;1.45;1.08;;;;;;;19.90;70.90;102174.09;4995962;28;20029;-88